Time;durP1;ratioP1;P1;durP2;ratioP2;P2;SDS_P1;SDS_P2;PMS_P1;PMS_P2;Temp;Humidity;BMP_temperature;BMP_pressure;BME280_temperature;BME280_humidity;BME280_pressure;Samples;Min_cycle;Max_cycle;Signal;HPM_P1;HPM_P2
2021/08/15 00:01:08;;;;;;;10.68;8.20;;;20.70;66.00;;;;;;5055427;28;20021;-81
2021/08/15 00:03:34;;;;;;;13.27;7.88;;;20.70;65.90;;;;;;5055384;28;20461;-81
2021/08/15 00:06:00;;;;;;;9.27;7.20;;;20.70;65.90;;;;;;5055218;28;20379;-81
2021/08/15 00:08:27;;;;;;;13.90;8.25;;;20.70;65.90;;;;;;5055297;28;20021;-81
2021/08/15 00:10:53;;;;;;;10.02;7.28;;;20.70;65.90;;;;;;5055215;28;20028;-81
2021/08/15 00:13:18;;;;;;;11.55;7.43;;;20.70;65.80;;;;;;5055806;28;20083;-82
2021/08/15 00:15:44;;;;;;;9.93;7.20;;;20.70;65.90;;;;;;5056173;28;20078;-82
2021/08/15 00:18:13;;;;;;;10.75;7.70;;;20.70;65.80;;;;;;5055812;28;20128;-82
2021/08/15 00:20:39;;;;;;;11.35;7.53;;;20.70;65.90;;;;;;5055623;28;20029;-81
2021/08/15 00:23:04;;;;;;;11.48;7.70;;;20.70;65.90;;;;;;5055705;28;20029;-81
2021/08/15 00:25:30;;;;;;;12.25;7.63;;;20.70;66.00;;;;;;5055629;28;20079;-81
2021/08/15 00:27:56;;;;;;;13.25;8.27;;;20.80;66.10;;;;;;5055574;28;20095;-82
2021/08/15 00:30:22;;;;;;;17.25;11.75;;;20.70;66.00;;;;;;5056160;28;20055;-81
2021/08/15 00:32:48;;;;;;;24.52;13.38;;;20.70;66.20;;;;;;5055540;28;20481;-81
2021/08/15 00:35:14;;;;;;;15.23;11.02;;;20.60;66.40;;;;;;5055470;28;20491;-81
2021/08/15 00:37:40;;;;;;;18.92;10.50;;;20.60;66.70;;;;;;5054204;28;20024;-82
2021/08/15 00:40:06;;;;;;;20.13;12.82;;;20.50;66.80;;;;;;5055378;28;20029;-82
2021/08/15 00:42:33;;;;;;;31.77;17.30;;;20.40;66.90;;;;;;5053829;28;20481;-81
2021/08/15 00:44:59;;;;;;;24.83;14.73;;;20.40;67.00;;;;;;5055018;28;20479;-82
2021/08/15 00:47:24;;;;;;;22.25;12.30;;;20.30;67.20;;;;;;5055324;28;20017;-81
2021/08/15 00:49:50;;;;;;;28.90;16.75;;;20.20;67.30;;;;;;5055288;28;20032;-81
2021/08/15 00:52:16;;;;;;;30.13;17.95;;;20.20;67.50;;;;;;5055202;28;20032;-81
2021/08/15 00:54:42;;;;;;;26.98;16.67;;;20.20;67.60;;;;;;5055158;28;20032;-81
2021/08/15 00:57:08;;;;;;;30.00;17.13;;;20.10;67.60;;;;;;5054182;28;20057;-81
2021/08/15 00:59:38;;;;;;;29.77;18.73;;;20.10;67.80;;;;;;5054836;28;20017;-81
2021/08/15 01:02:04;;;;;;;38.63;22.15;;;20.10;67.90;;;;;;5055045;28;20526;-81
2021/08/15 01:04:30;;;;;;;29.60;19.05;;;20.00;68.00;;;;;;5054473;28;20044;-79
2021/08/15 01:06:56;;;;;;;30.90;17.85;;;19.90;68.10;;;;;;5054149;28;20025;-80
2021/08/15 01:09:22;;;;;;;36.17;19.00;;;19.80;68.30;;;;;;5053171;28;20064;-79
2021/08/15 01:11:48;;;;;;;30.02;15.98;;;19.70;68.50;;;;;;5054410;28;20028;-82
2021/08/15 01:14:14;;;;;;;24.92;15.05;;;19.60;68.70;;;;;;5054635;28;20056;-80
2021/08/15 01:16:44;;;;;;;27.45;15.50;;;19.60;69.10;;;;;;5054820;28;20021;-81
2021/08/15 01:19:11;;;;;;;24.85;15.77;;;19.50;69.30;;;;;;5054632;28;20025;-82
2021/08/15 01:21:44;;;;;;;23.20;15.57;;;19.40;69.40;;;;;;5054657;28;20372;-81
2021/08/15 01:24:10;;;;;;;27.25;15.65;;;19.40;69.80;;;;;;5054591;28;20376;-81
2021/08/15 01:26:38;;;;;;;23.95;15.50;;;19.30;69.90;;;;;;5054861;28;20025;-81
2021/08/15 01:29:04;;;;;;;24.50;14.35;;;19.20;70.10;;;;;;5054964;28;20032;-81
2021/08/15 01:31:30;;;;;;;23.55;15.60;;;19.20;70.40;;;;;;5054445;28;20082;-82
2021/08/15 01:33:56;;;;;;;23.13;15.38;;;19.20;70.60;;;;;;5054349;28;20785;-81
2021/08/15 01:36:23;;;;;;;24.08;17.33;;;19.10;70.70;;;;;;5054406;28;20100;-82
2021/08/15 01:38:50;;;;;;;27.60;16.58;;;19.10;70.70;;;;;;5052734;28;20112;-81
2021/08/15 01:41:17;;;;;;;25.52;15.93;;;19.10;71.00;;;;;;5054390;28;20017;-81
2021/08/15 01:43:57;;;;;;;26.98;17.42;;;19.00;71.00;;;;;;5054331;28;20371;-81
2021/08/15 01:46:29;;;;;;;28.80;16.77;;;19.00;71.30;;;;;;5054210;28;20032;-81
2021/08/15 01:48:55;;;;;;;25.60;16.90;;;18.90;71.20;;;;;;5054238;28;20048;-81
2021/08/15 01:51:21;;;;;;;28.58;16.10;;;18.90;71.40;;;;;;5053176;28;20025;-81
2021/08/15 01:53:49;;;;;;;29.05;16.25;;;18.90;71.60;;;;;;5054158;28;20017;-81
2021/08/15 01:56:14;;;;;;;28.48;17.92;;;18.80;71.80;;;;;;5054195;28;20044;-82
2021/08/15 01:58:40;;;;;;;27.92;19.55;;;18.80;71.90;;;;;;5054384;28;20029;-81
2021/08/15 02:01:06;;;;;;;28.33;19.95;;;18.80;72.00;;;;;;5054108;28;20379;-81
2021/08/15 02:03:32;;;;;;;39.80;23.75;;;18.70;72.10;;;;;;5054115;28;20371;-81
2021/08/15 02:05:58;;;;;;;37.65;22.80;;;18.60;72.20;;;;;;5054095;28;20067;-82
2021/08/15 02:08:24;;;;;;;31.52;21.13;;;18.50;72.30;;;;;;5053732;28;20025;-82
2021/08/15 02:10:50;;;;;;;31.50;21.55;;;18.50;72.70;;;;;;5052713;28;20025;-81
2021/08/15 02:13:16;;;;;;;33.20;22.48;;;18.50;73.00;;;;;;5052999;28;20412;-81
2021/08/15 02:15:42;;;;;;;30.00;22.20;;;18.40;73.10;;;;;;5053695;28;20052;-81
2021/08/15 02:18:08;;;;;;;29.95;21.30;;;18.50;73.40;;;;;;5053474;28;20459;-81
2021/08/15 02:20:34;;;;;;;36.90;21.52;;;18.50;73.50;;;;;;5053663;28;20100;-81
2021/08/15 02:23:01;;;;;;;31.00;21.60;;;18.50;73.50;;;;;;5051552;28;20040;-79
2021/08/15 02:25:28;;;;;;;31.67;21.52;;;18.50;73.50;;;;;;5051232;28;20044;-80
2021/08/15 02:27:54;;;;;;;30.92;21.17;;;18.50;73.60;;;;;;5052523;28;20032;-80
2021/08/15 02:30:23;;;;;;;30.67;20.75;;;18.50;73.60;;;;;;5052384;28;20096;-80
2021/08/15 02:32:49;;;;;;;28.33;20.38;;;18.50;73.70;;;;;;5052446;28;20029;-80
2021/08/15 02:35:15;;;;;;;27.90;19.48;;;18.60;73.70;;;;;;5051915;28;20029;-80
2021/08/15 02:37:44;;;;;;;22.30;17.92;;;18.60;73.70;;;;;;5052074;28;20033;-79
2021/08/15 02:40:11;;;;;;;25.55;18.58;;;18.60;73.70;;;;;;5051590;28;20406;-80
2021/08/15 02:42:39;;;;;;;40.15;25.92;;;18.60;73.60;;;;;;5052381;28;20536;-79
2021/08/15 02:45:07;;;;;;;33.65;23.85;;;18.50;73.20;;;;;;5051984;28;20033;-80
2021/08/15 02:47:33;;;;;;;23.27;18.70;;;18.50;73.10;;;;;;5052386;28;20513;-79
2021/08/15 02:49:58;;;;;;;29.58;19.85;;;18.40;74.10;;;;;;5052339;28;20029;-80
2021/08/15 02:52:24;;;;;;;26.48;18.52;;;18.40;73.80;;;;;;5052155;28;20087;-80
2021/08/15 02:54:50;;;;;;;24.80;18.27;;;18.50;74.00;;;;;;5052258;28;20103;-80
2021/08/15 02:57:15;;;;;;;25.55;17.92;;;18.60;74.10;;;;;;5052100;28;20057;-80
2021/08/15 02:59:41;;;;;;;27.92;18.67;;;18.80;74.00;;;;;;5052326;28;20164;-79
2021/08/15 03:02:12;;;;;;;22.75;17.08;;;19.10;73.60;;;;;;5051986;28;20060;-79
2021/08/15 03:04:38;;;;;;;23.50;15.57;;;19.30;73.00;;;;;;5051983;28;20060;-78
2021/08/15 03:07:04;;;;;;;18.58;15.05;;;19.70;72.40;;;;;;5051953;28;20041;-78
2021/08/15 03:09:30;;;;;;;20.30;14.93;;;20.30;71.70;;;;;;5051953;28;20047;-78
2021/08/15 03:11:56;;;;;;;23.85;15.93;;;20.80;70.50;;;;;;5051687;28;20850;-79
2021/08/15 03:14:22;;;;;;;24.30;15.48;;;21.40;69.30;;;;;;5051756;28;20029;-78
2021/08/15 03:16:48;;;;;;;22.15;14.15;;;22.00;67.80;;;;;;5051513;28;20040;-79
2021/08/15 03:19:14;;;;;;;21.17;14.88;;;22.70;66.30;;;;;;5052014;28;20021;-79
2021/08/15 03:21:40;;;;;;;27.65;15.02;;;23.30;64.70;;;;;;5055069;28;20058;-79
2021/08/15 03:24:06;;;;;;;20.45;14.63;;;24.00;63.10;;;;;;5055545;28;20056;-78
2021/08/15 03:26:32;;;;;;;26.67;15.43;;;24.70;61.60;;;;;;5055365;28;20021;-77
2021/08/15 03:28:59;;;;;;;23.85;13.57;;;25.40;60.20;;;;;;5055422;28;20021;-80
2021/08/15 03:31:25;;;;;;;30.80;15.18;;;26.10;58.70;;;;;;5055243;28;20048;-77
2021/08/15 03:33:51;;;;;;;25.08;14.82;;;26.90;57.20;;;;;;5055424;28;20490;-81
2021/08/15 03:36:17;;;;;;;22.02;14.23;;;27.50;55.80;;;;;;5056419;28;20053;-83
2021/08/15 03:38:43;;;;;;;26.13;13.55;;;28.20;54.50;;;;;;5055767;28;20530;-81
2021/08/15 03:41:09;;;;;;;23.63;14.43;;;28.80;53.40;;;;;;5054977;28;20028;-82
2021/08/15 03:43:34;;;;;;;23.55;13.85;;;29.40;52.40;;;;;;5056434;28;20075;-82
2021/08/15 03:46:00;;;;;;;20.60;13.57;;;30.10;51.20;;;;;;5056417;28;20352;-82
2021/08/15 03:48:26;;;;;;;20.63;13.63;;;30.70;50.30;;;;;;5056190;28;20071;-84
2021/08/15 03:50:52;;;;;;;21.25;13.60;;;31.40;49.40;;;;;;5056169;28;20017;-82
2021/08/15 03:53:18;;;;;;;26.00;14.57;;;32.00;48.30;;;;;;5056190;28;20472;-82
2021/08/15 03:55:43;;;;;;;19.98;13.40;;;32.40;47.40;;;;;;5055779;28;20052;-81
2021/08/15 03:58:09;;;;;;;26.83;15.05;;;32.90;46.70;;;;;;5055356;28;20040;-82
2021/08/15 04:00:40;;;;;;;26.27;13.30;;;33.40;46.00;;;;;;5055540;28;20091;-81
2021/08/15 04:03:10;;;;;;;22.92;13.50;;;34.00;45.30;;;;;;5055349;28;20021;-81
2021/08/15 04:05:37;;;;;;;28.40;15.77;;;34.60;44.50;;;;;;5055506;28;20056;-82
2021/08/15 04:08:07;;;;;;;24.55;15.85;;;35.10;43.90;;;;;;5055419;28;20073;-82
2021/08/15 04:10:33;;;;;;;25.35;14.75;;;35.50;43.10;;;;;;5055442;28;20020;-82
2021/08/15 04:12:59;;;;;;;21.25;14.45;;;36.00;42.40;;;;;;5055337;28;20021;-82
2021/08/15 04:15:25;;;;;;;19.45;13.05;;;36.50;41.80;;;;;;5054969;28;20032;-81
2021/08/15 04:17:51;;;;;;;22.83;13.95;;;36.70;41.20;;;;;;5054925;28;20020;-81
2021/08/15 04:20:17;;;;;;;24.77;13.30;;;37.00;40.90;;;;;;5054951;28;20033;-81
2021/08/15 04:22:43;;;;;;;22.10;14.00;;;37.30;40.60;;;;;;5055007;28;20017;-81
2021/08/15 04:25:09;;;;;;;28.67;13.98;;;37.60;40.20;;;;;;5054666;28;20021;-81
2021/08/15 04:27:34;;;;;;;23.60;13.82;;;38.00;39.90;;;;;;5054567;28;20435;-81
2021/08/15 04:30:00;;;;;;;27.67;13.98;;;38.30;39.50;;;;;;5054701;28;20036;-81
2021/08/15 04:32:26;;;;;;;21.08;14.32;;;38.60;39.10;;;;;;5053676;28;20059;-80
2021/08/15 04:34:51;;;;;;;23.45;14.32;;;39.10;38.90;;;;;;5054477;28;20035;-82
2021/08/15 04:37:18;;;;;;;24.20;14.15;;;39.50;38.50;;;;;;5054146;28;20035;-81
2021/08/15 04:39:44;;;;;;;20.55;13.25;;;39.90;38.20;;;;;;5053901;28;20052;-80
2021/08/15 04:42:11;;;;;;;18.58;13.23;;;40.20;37.70;;;;;;5054070;28;20027;-80
2021/08/15 04:44:37;;;;;;;21.15;13.20;;;40.50;37.40;;;;;;5053780;28;20063;-80
2021/08/15 04:47:03;;;;;;;18.20;13.43;;;40.80;37.30;;;;;;5053784;28;20108;-80
2021/08/15 04:49:29;;;;;;;20.10;12.20;;;41.10;37.00;;;;;;5053805;28;20029;-80
2021/08/15 04:51:55;;;;;;;17.08;12.85;;;41.30;36.80;;;;;;5053990;28;20383;-80
2021/08/15 04:54:28;;;;;;;24.50;12.05;;;41.60;36.60;;;;;;5054431;28;20021;-80
2021/08/15 04:56:54;;;;;;;18.25;12.55;;;41.80;36.30;;;;;;5053951;28;20073;-80
2021/08/15 04:59:20;;;;;;;20.27;12.95;;;42.00;36.10;;;;;;5053505;28;20083;-80
2021/08/15 05:01:46;;;;;;;29.02;12.75;;;42.20;35.90;;;;;;5053522;28;20021;-80
2021/08/15 05:04:12;;;;;;;16.73;12.68;;;42.50;35.80;;;;;;5052377;28;20425;-80
2021/08/15 05:06:37;;;;;;;19.55;12.70;;;42.80;35.60;;;;;;5053277;28;20025;-80
2021/08/15 05:09:04;;;;;;;20.23;12.27;;;42.90;35.40;;;;;;5053277;28;20029;-81
2021/08/15 05:11:30;;;;;;;19.00;13.23;;;43.20;35.40;;;;;;5053319;28;20025;-80
2021/08/15 05:13:56;;;;;;;18.98;13.57;;;43.50;35.20;;;;;;5051975;28;20036;-80
2021/08/15 05:16:21;;;;;;;18.85;13.43;;;43.80;35.10;;;;;;5053303;28;20025;-80
2021/08/15 05:18:47;;;;;;;19.60;13.18;;;43.90;34.90;;;;;;5051756;28;20029;-79
2021/08/15 05:21:13;;;;;;;22.27;13.40;;;44.10;34.70;;;;;;5051767;28;20035;-79
2021/08/15 05:23:39;;;;;;;19.27;12.95;;;44.20;34.60;;;;;;5052724;28;20033;-80
2021/08/15 05:26:04;;;;;;;17.95;12.90;;;44.50;34.60;;;;;;5052796;28;20029;-80
2021/08/15 05:28:30;;;;;;;18.48;12.73;;;44.70;34.60;;;;;;5053575;28;20021;-80
2021/08/15 05:30:56;;;;;;;21.30;13.27;;;44.90;34.50;;;;;;5052923;28;20024;-80
2021/08/15 05:33:22;;;;;;;18.45;12.93;;;45.10;34.40;;;;;;5052855;28;20024;-80
2021/08/15 05:35:47;;;;;;;18.88;12.55;;;45.30;34.20;;;;;;5052882;28;20039;-80
2021/08/15 05:38:13;;;;;;;17.65;12.25;;;45.40;34.00;;;;;;5052609;28;20032;-80
2021/08/15 05:40:38;;;;;;;15.15;10.35;;;45.50;34.00;;;;;;5052337;28;20033;-79
2021/08/15 05:43:04;;;;;;;14.55;11.07;;;45.60;33.80;;;;;;5052262;28;20021;-80
2021/08/15 05:45:30;;;;;;;15.50;10.00;;;45.80;33.70;;;;;;5052395;28;20025;-81
2021/08/15 05:47:55;;;;;;;12.82;8.30;;;45.90;33.60;;;;;;5053023;28;20031;-83
2021/08/15 05:50:21;;;;;;;12.20;9.10;;;46.00;33.10;;;;;;5053695;28;20029;-83
2021/08/15 05:52:47;;;;;;;16.23;11.60;;;45.90;32.80;;;;;;5053537;28;20471;-83
2021/08/15 05:55:13;;;;;;;15.55;11.32;;;46.10;33.00;;;;;;5053555;28;20459;-82
2021/08/15 05:57:39;;;;;;;19.13;11.40;;;46.20;33.00;;;;;;5053276;28;20076;-84
2021/08/15 06:00:06;;;;;;;16.15;11.60;;;46.30;32.70;;;;;;5053160;28;20380;-83
2021/08/15 06:02:32;;;;;;;14.27;12.27;;;46.20;32.10;;;;;;5052875;28;20017;-83
2021/08/15 06:04:59;;;;;;;14.82;11.43;;;46.30;32.00;;;;;;5053309;28;20060;-83
2021/08/15 06:07:25;;;;;;;15.32;11.73;;;46.40;31.80;;;;;;5053196;28;20047;-84
2021/08/15 06:09:52;;;;;;;11.77;9.63;;;46.50;31.60;;;;;;5051928;28;20037;-84
2021/08/15 06:12:28;;;;;;;16.90;9.88;;;46.60;31.30;;;;;;5053082;28;20052;-83
2021/08/15 06:14:54;;;;;;;15.18;9.30;;;46.80;31.20;;;;;;5053211;28;20380;-82
2021/08/15 06:17:22;;;;;;;10.23;8.55;;;47.00;31.20;;;;;;5052914;28;20032;-83
2021/08/15 06:19:48;;;;;;;11.55;8.65;;;47.10;31.00;;;;;;5052774;28;20032;-84
2021/08/15 06:22:14;;;;;;;8.57;7.72;;;47.10;30.80;;;;;;5053094;28;20025;-83
2021/08/15 06:24:41;;;;;;;12.38;7.63;;;47.30;30.80;;;;;;5053132;28;20025;-83
2021/08/15 06:27:07;;;;;;;8.18;6.88;;;47.40;30.50;;;;;;5051803;28;20480;-82
2021/08/15 06:29:32;;;;;;;8.32;6.70;;;47.50;30.00;;;;;;5052715;28;20071;-84
2021/08/15 06:31:58;;;;;;;10.40;6.32;;;47.50;29.90;;;;;;5052780;28;20021;-83
2021/08/15 06:34:24;;;;;;;6.68;5.97;;;47.50;29.70;;;;;;5052955;28;20479;-83
2021/08/15 06:36:49;;;;;;;12.00;5.80;;;47.60;29.50;;;;;;5052716;28;20028;-84
2021/08/15 06:39:15;;;;;;;6.30;5.03;;;47.50;29.30;;;;;;5053057;28;20082;-85
2021/08/15 06:41:41;;;;;;;5.95;5.35;;;47.40;29.30;;;;;;5052738;28;20372;-85
2021/08/15 06:44:08;;;;;;;7.45;5.95;;;47.40;29.40;;;;;;5052485;28;20036;-83
2021/08/15 06:46:34;;;;;;;6.65;5.97;;;47.50;29.40;;;;;;5052284;28;20025;-83
2021/08/15 06:49:00;;;;;;;6.32;4.95;;;47.50;29.40;;;;;;5050537;28;20049;-84
2021/08/15 06:51:26;;;;;;;9.23;5.20;;;47.60;29.20;;;;;;5051940;28;20422;-84
2021/08/15 06:53:52;;;;;;;5.55;5.03;;;47.40;28.90;;;;;;5048266;28;20472;-83
2021/08/15 06:56:18;;;;;;;7.20;5.35;;;47.10;29.00;;;;;;5054195;28;20079;-84
2021/08/15 06:58:44;;;;;;;7.03;5.45;;;46.90;29.10;;;;;;5055898;28;20124;-84
2021/08/15 07:01:10;;;;;;;8.75;5.35;;;46.70;29.40;;;;;;5055055;28;20187;-84
2021/08/15 07:03:35;;;;;;;7.90;4.80;;;46.50;29.40;;;;;;5055285;28;20036;-84
2021/08/15 07:06:01;;;;;;;9.27;5.35;;;46.50;29.40;;;;;;5056554;28;20021;-84
2021/08/15 07:08:27;;;;;;;10.07;5.35;;;46.60;29.30;;;;;;5056241;28;20491;-84
2021/08/15 07:10:53;;;;;;;9.80;5.55;;;46.70;29.50;;;;;;5055869;28;20063;-85
2021/08/15 07:13:24;;;;;;;6.47;5.78;;;46.70;29.50;;;;;;5056251;28;20117;-84
2021/08/15 07:15:53;;;;;;;9.70;5.20;;;46.60;29.50;;;;;;5056320;28;20013;-84
2021/08/15 07:18:20;;;;;;;9.75;5.50;;;46.60;29.70;;;;;;5055691;28;20037;-84
2021/08/15 07:20:46;;;;;;;8.88;5.38;;;46.50;29.70;;;;;;5056944;28;20068;-85
2021/08/15 07:23:13;;;;;;;6.40;5.50;;;46.30;29.60;;;;;;5055883;28;20120;-85
2021/08/15 07:25:39;;;;;;;7.55;5.78;;;46.20;29.60;;;;;;5054542;28;20522;-85
2021/08/15 07:28:05;;;;;;;8.40;5.40;;;46.00;29.70;;;;;;5054202;28;20053;-84
2021/08/15 07:30:32;;;;;;;8.88;5.50;;;45.90;29.70;;;;;;5055019;28;20114;-84
2021/08/15 07:33:01;;;;;;;6.57;5.32;;;45.70;29.80;;;;;;5055441;28;20037;-85
2021/08/15 07:35:28;;;;;;;8.40;5.57;;;45.50;29.80;;;;;;5054324;28;20040;-83
2021/08/15 07:37:54;;;;;;;9.32;5.25;;;45.40;30.00;;;;;;5055435;28;20048;-83
2021/08/15 07:40:21;;;;;;;7.78;5.13;;;45.20;30.00;;;;;;5055206;28;20456;-84
2021/08/15 07:42:50;;;;;;;7.90;4.90;;;44.80;29.90;;;;;;5055204;28;20155;-84
2021/08/15 07:45:17;;;;;;;8.40;5.10;;;44.50;30.00;;;;;;5055458;28;20023;-84
2021/08/15 07:47:42;;;;;;;9.50;5.45;;;44.30;30.10;;;;;;5052253;28;20471;-83
2021/08/15 07:50:09;;;;;;;7.50;5.20;;;44.00;30.30;;;;;;5055278;28;20047;-82
2021/08/15 07:52:35;;;;;;;8.05;5.05;;;43.80;30.40;;;;;;5054583;28;20115;-85
2021/08/15 07:55:01;;;;;;;5.80;4.90;;;43.60;30.70;;;;;;5055563;28;20444;-89
2021/08/15 07:57:27;;;;;;;9.27;6.00;;;43.30;30.50;;;;;;5055460;28;20045;-90
2021/08/15 07:59:53;;;;;;;8.40;5.18;;;43.00;30.60;;;;;;5055547;28;20028;-89
2021/08/15 08:02:20;;;;;;;9.45;4.85;;;42.70;30.80;;;;;;5055487;28;20021;-89
2021/08/15 08:04:48;;;;;;;5.78;4.70;;;42.40;30.90;;;;;;5055665;28;20025;-89
2021/08/15 08:07:17;;;;;;;6.35;4.70;;;42.10;31.00;;;;;;5056610;28;20021;-89
2021/08/15 08:09:43;;;;;;;10.35;5.50;;;41.70;31.30;;;;;;5053706;28;20021;-90
2021/08/15 08:12:09;;;;;;;12.02;5.13;;;41.40;31.50;;;;;;5055791;28;20024;-86
2021/08/15 08:14:34;;;;;;;13.50;5.90;;;41.00;31.80;;;;;;5056711;28;20027;-90
2021/08/15 08:17:00;;;;;;;10.18;8.73;;;40.70;32.20;;;;;;5055021;28;20023;-90
2021/08/15 08:19:29;;;;;;;11.32;5.65;;;40.30;32.50;;;;;;5056516;28;20501;-92
2021/08/15 08:21:55;;;;;;;8.35;5.38;;;40.00;32.90;;;;;;5035522;28;20034;-92
2021/08/15 08:24:20;;;;;;;9.07;5.15;;;39.80;33.10;;;;;;5035462;28;20025;-90
2021/08/15 08:27:18;;;;;;;8.18;5.70;;;39.60;33.00;;;;;;5037056;28;20103;-94
2021/08/15 08:30:02;;;;;;;10.48;5.25;;;39.40;33.10;;;;;;5037668;28;20112;-92
2021/08/15 08:32:28;;;;;;;11.32;5.72;;;39.20;33.60;;;;;;5039363;28;20060;-92
2021/08/15 08:34:54;;;;;;;9.20;5.60;;;39.00;33.80;;;;;;5048234;28;20021;-91
2021/08/15 08:37:23;;;;;;;8.15;5.50;;;38.80;34.00;;;;;;5057784;28;20453;-92
2021/08/15 08:39:51;;;;;;;6.30;5.35;;;38.70;34.20;;;;;;5056246;28;20025;-91
2021/08/15 08:42:18;;;;;;;8.45;5.82;;;38.70;34.10;;;;;;5052752;28;20605;-91
2021/08/15 08:44:45;;;;;;;9.95;6.13;;;38.60;34.20;;;;;;5053879;28;20025;-92
2021/08/15 08:47:11;;;;;;;11.32;6.28;;;38.50;34.30;;;;;;5053562;28;20025;-91
2021/08/15 08:49:41;;;;;;;16.20;6.50;;;38.30;34.40;;;;;;5054392;28;20438;-92
2021/08/15 08:52:08;;;;;;;8.02;5.95;;;38.10;34.60;;;;;;5055938;28;20017;-91
2021/08/15 08:54:34;;;;;;;8.32;5.78;;;37.90;34.80;;;;;;5053214;28;20108;-91
2021/08/15 08:57:01;;;;;;;6.97;5.60;;;37.80;34.80;;;;;;5053634;28;20127;-92
2021/08/15 08:59:27;;;;;;;9.10;6.20;;;37.70;34.80;;;;;;5053353;28;20430;-93
2021/08/15 09:01:53;;;;;;;8.98;6.82;;;37.50;34.80;;;;;;5054099;28;20031;-92
2021/08/15 09:04:19;;;;;;;10.70;5.95;;;37.50;35.10;;;;;;5053503;28;20020;-93
2021/08/15 09:06:45;;;;;;;11.10;6.25;;;37.50;35.00;;;;;;5055726;28;20104;-92
2021/08/15 09:09:14;;;;;;;7.95;6.43;;;37.40;35.00;;;;;;5054077;28;20063;-95
2021/08/15 09:11:49;;;;;;;9.18;6.25;;;37.40;35.40;;;;;;5060019;28;20037;-91
2021/08/15 09:14:20;;;;;;;11.95;6.10;;;37.20;35.30;;;;;;5056959;28;20390;-94
2021/08/15 09:16:49;;;;;;;;;;;37.10;35.60;;;;;;5056228;28;20025;-93
2021/08/15 09:19:26;;;;;;;6.55;5.78;;;36.90;35.50;;;;;;5052974;28;20335;-92
2021/08/15 09:21:55;;;;;;;7.13;5.53;;;36.80;35.40;;;;;;5053716;28;20082;-88
2021/08/15 09:24:21;;;;;;;10.10;5.63;;;36.60;35.30;;;;;;5053411;28;20029;-93
2021/08/15 09:27:07;;;;;;;7.47;5.20;;;36.40;35.70;;;;;;5053412;28;20017;-93
2021/08/15 09:29:33;;;;;;;7.55;5.65;;;36.10;35.80;;;;;;5053020;28;20483;-87
2021/08/15 09:31:59;;;;;;;12.65;5.78;;;36.00;35.90;;;;;;5054683;28;20025;-85
2021/08/15 09:34:29;;;;;;;15.43;6.40;;;35.90;36.20;;;;;;5056716;28;20104;-87
2021/08/15 09:36:55;;;;;;;11.05;5.85;;;35.80;36.80;;;;;;5055101;28;20025;-86
2021/08/15 09:39:38;;;;;;;12.18;7.95;;;35.80;37.20;;;;;;5054274;28;20052;-82
2021/08/15 09:42:04;;;;;;;9.63;6.30;;;35.70;37.20;;;;;;5053971;28;20347;-86
2021/08/15 09:44:33;;;;;;;9.00;6.15;;;35.40;37.30;;;;;;5053980;28;20025;-87
2021/08/15 09:47:05;;;;;;;17.48;6.88;;;35.10;37.50;;;;;;5052926;28;20379;-86
2021/08/15 09:49:39;;;;;;;14.18;7.07;;;34.70;37.90;;;;;;5053693;28;20028;-85
2021/08/15 09:52:08;;;;;;;15.10;7.28;;;34.30;38.30;;;;;;5053381;28;20048;-85
2021/08/15 09:54:34;;;;;;;10.07;6.00;;;34.00;38.70;;;;;;5053713;28;20100;-85
2021/08/15 09:57:04;;;;;;;10.07;7.03;;;33.90;39.30;;;;;;5053210;28;20041;-86
2021/08/15 09:59:34;;;;;;;9.60;6.75;;;33.70;39.30;;;;;;5053474;28;20021;-86
2021/08/15 10:02:01;;;;;;;10.30;6.15;;;33.50;39.50;;;;;;5053912;28;20021;-86
2021/08/15 10:04:27;;;;;;;10.00;5.53;;;33.30;39.50;;;;;;5052505;28;20059;-87
2021/08/15 10:07:05;;;;;;;10.75;5.85;;;33.10;39.40;;;;;;5052121;28;20029;-85
2021/08/15 10:09:31;;;;;;;13.45;6.68;;;33.10;39.70;;;;;;5053089;28;20100;-86
2021/08/15 10:11:57;;;;;;;12.23;6.40;;;33.10;39.80;;;;;;5051611;28;20432;-86
2021/08/15 10:14:23;;;;;;;9.93;6.55;;;33.10;40.30;;;;;;5053248;28;20025;-87
2021/08/15 10:17:01;;;;;;;10.52;6.25;;;33.00;39.50;;;;;;5053033;28;20525;-86
2021/08/15 10:19:39;;;;;;;12.80;11.35;;;32.90;39.80;;;;;;5053178;28;20471;-88
2021/08/15 10:22:06;;;;;;;9.88;6.70;;;32.80;39.80;;;;;;5052190;28;20101;-87
2021/08/15 10:24:47;;;;;;;6.93;5.95;;;32.70;39.80;;;;;;5052941;28;20107;-87
2021/08/15 10:27:41;;;;;;;12.48;6.22;;;32.60;40.10;;;;;;5052828;28;20364;-85
2021/08/15 10:30:43;;;;;;;6.53;5.75;;;32.40;40.10;;;;;;5051530;28;20029;-85
2021/08/15 10:33:16;;;;;;;8.40;6.00;;;32.30;39.80;;;;;;5056195;28;20021;-86
2021/08/15 10:35:42;;;;;;;8.25;5.43;;;32.10;39.90;;;;;;5053138;28;20383;-84
2021/08/15 10:38:28;;;;;;;8.50;6.43;;;31.90;40.20;;;;;;5055174;28;20024;-85
2021/08/15 10:40:54;;;;;;;11.48;5.93;;;31.80;40.70;;;;;;5053902;28;20031;-87
2021/08/15 10:43:23;;;;;;;9.05;6.10;;;31.80;40.70;;;;;;5053277;28;20108;-86
2021/08/15 10:46:08;;;;;;;9.20;5.97;;;31.80;40.80;;;;;;5053391;28;20021;-86
2021/08/15 10:48:55;;;;;;;9.25;5.68;;;31.70;40.90;;;;;;5053090;28;20049;-86
2021/08/15 10:51:48;;;;;;;8.10;6.28;;;31.60;41.10;;;;;;5052674;28;20079;-87
2021/08/15 10:54:29;;;;;;;7.43;5.72;;;31.60;41.30;;;;;;5052788;28;20099;-84
2021/08/15 10:56:59;;;;;;;8.35;6.38;;;31.60;41.10;;;;;;5052066;28;20053;-86
2021/08/15 10:59:42;;;;;;;10.13;6.75;;;31.70;41.50;;;;;;5052998;28;20040;-86
2021/08/15 11:02:16;;;;;;;7.50;6.10;;;31.70;41.90;;;;;;5053009;28;20035;-87
2021/08/15 11:05:03;;;;;;;8.60;6.20;;;31.70;41.20;;;;;;5053182;28;20025;-85
2021/08/15 11:07:40;;;;;;;11.10;5.97;;;31.50;41.20;;;;;;5052777;28;20049;-85
2021/08/15 11:10:10;;;;;;;9.32;6.40;;;31.40;41.60;;;;;;5051433;28;20470;-86
2021/08/15 11:13:15;;;;;;;8.13;6.25;;;31.40;41.50;;;;;;5052593;28;20044;-84
2021/08/15 11:15:41;;;;;;;10.60;6.38;;;31.40;41.50;;;;;;5052589;28;20483;-84
2021/08/15 11:18:14;;;;;;;16.27;7.10;;;31.40;41.60;;;;;;5052546;28;20029;-87
2021/08/15 11:20:49;;;;;;;10.77;6.57;;;31.30;42.20;;;;;;5053370;28;20025;-93
2021/08/15 11:23:25;;;;;;;10.73;6.28;;;31.40;42.20;;;;;;5052753;28;20048;-89
2021/08/15 11:25:51;;;;;;;10.35;5.95;;;31.40;42.20;;;;;;5052758;28;20032;-87
2021/08/15 11:28:18;;;;;;;12.02;6.82;;;31.40;42.10;;;;;;5052922;28;20025;-86
2021/08/15 11:30:44;;;;;;;10.25;6.40;;;31.30;42.10;;;;;;5052643;28;20029;-87
2021/08/15 11:33:11;;;;;;;13.00;6.38;;;31.20;42.00;;;;;;5052905;28;20352;-85
2021/08/15 11:35:44;;;;;;;7.72;6.28;;;31.00;42.00;;;;;;5053152;28;20024;-85
2021/08/15 11:38:13;;;;;;;10.65;6.57;;;30.90;42.30;;;;;;5053530;28;20024;-86
2021/08/15 11:40:46;;;;;;;8.80;6.70;;;30.90;42.50;;;;;;5052275;28;20025;-87
2021/08/15 11:43:18;;;;;;;10.70;6.97;;;31.00;42.50;;;;;;5056260;28;20079;-86
2021/08/15 11:45:51;;;;;;;10.93;6.43;;;31.00;42.50;;;;;;5056878;28;20045;-86
2021/08/15 11:48:34;;;;;;;10.68;6.50;;;31.10;42.50;;;;;;5056516;28;20025;-87
2021/08/15 11:51:03;;;;;;;7.53;6.20;;;31.20;42.70;;;;;;5054925;28;20029;-86
2021/08/15 11:53:36;;;;;;;11.57;7.30;;;31.30;42.60;;;;;;5056015;28;20021;-86
2021/08/15 11:56:10;;;;;;;10.15;7.22;;;31.40;42.50;;;;;;5056383;28;20041;-87
2021/08/15 11:58:54;;;;;;;8.77;6.78;;;31.30;42.60;;;;;;5057486;28;20063;-87
2021/08/15 12:01:25;;;;;;;12.25;6.63;;;31.10;42.70;;;;;;5057009;28;20029;-86
2021/08/15 12:04:02;;;;;;;9.18;7.15;;;31.00;42.60;;;;;;5056036;28;20021;-88
2021/08/15 12:06:29;;;;;;;10.98;7.18;;;30.80;42.80;;;;;;5056043;28;20033;-86
2021/08/15 12:08:55;;;;;;;10.73;7.07;;;30.70;42.90;;;;;;5054524;28;20021;-78
2021/08/15 12:11:25;;;;;;;10.73;6.88;;;30.70;43.70;;;;;;5054075;28;20025;-84
2021/08/15 12:14:12;;;;;;;10.43;6.68;;;30.60;43.10;;;;;;5055408;28;20017;-84
2021/08/15 12:16:39;;;;;;;12.45;7.10;;;30.40;43.50;;;;;;5055943;28;20078;-87
2021/08/15 12:19:06;;;;;;;10.80;7.40;;;30.50;43.90;;;;;;5055225;28;20163;-88
2021/08/15 12:21:35;;;;;;;12.18;6.80;;;30.50;44.10;;;;;;5055850;28;20047;-86
2021/08/15 12:24:11;;;;;;;9.43;6.97;;;30.50;44.00;;;;;;5054004;28;20101;-85
2021/08/15 12:26:42;;;;;;;9.75;6.97;;;30.40;44.30;;;;;;5054009;28;20047;-84
2021/08/15 12:29:16;;;;;;;9.57;6.97;;;30.40;44.40;;;;;;5055332;28;20104;-84
2021/08/15 12:31:42;;;;;;;8.20;6.95;;;30.40;44.50;;;;;;5053818;28;20384;-85
2021/08/15 12:34:16;;;;;;;13.23;7.70;;;30.40;44.40;;;;;;5055317;28;20025;-85
2021/08/15 12:36:52;;;;;;;14.05;6.93;;;30.40;44.40;;;;;;5053947;28;20025;-81
2021/08/15 12:39:29;;;;;;;11.82;6.82;;;30.40;44.50;;;;;;5053440;28;20100;-83
2021/08/15 12:41:56;;;;;;;8.93;6.70;;;30.40;44.20;;;;;;5053621;28;20029;-81